sensor_id;sensor_type;location;lat;lon;timestamp;temperature;humidity
48206;DHT22;33995;48.202;16.260;2023-03-25T00:00:20;13.80;99.90
48206;DHT22;33995;48.202;16.260;2023-03-25T00:02:50;13.80;99.90
48206;DHT22;33995;48.202;16.260;2023-03-25T00:05:19;13.90;99.90
48206;DHT22;33995;48.202;16.260;2023-03-25T00:07:49;13.80;99.90
48206;DHT22;33995;48.202;16.260;2023-03-25T00:10:18;13.80;99.90
48206;DHT22;33995;48.202;16.260;2023-03-25T00:12:45;13.80;99.90
48206;DHT22;33995;48.202;16.260;2023-03-25T00:15:12;13.80;99.90
48206;DHT22;33995;48.202;16.260;2023-03-25T00:17:41;13.80;99.90
48206;DHT22;33995;48.202;16.260;2023-03-25T00:20:11;13.80;99.90
48206;DHT22;33995;48.202;16.260;2023-03-25T00:22:40;13.80;99.90
48206;DHT22;33995;48.202;16.260;2023-03-25T00:25:12;13.70;99.90
48206;DHT22;33995;48.202;16.260;2023-03-25T00:27:44;13.70;99.90
48206;DHT22;33995;48.202;16.260;2023-03-25T00:30:15;13.70;99.90
48206;DHT22;33995;48.202;16.260;2023-03-25T00:32:44;13.60;99.90
48206;DHT22;33995;48.202;16.260;2023-03-25T00:35:21;13.70;99.90
48206;DHT22;33995;48.202;16.260;2023-03-25T00:37:51;13.70;99.90
48206;DHT22;33995;48.202;16.260;2023-03-25T00:40:30;13.70;99.90
48206;DHT22;33995;48.202;16.260;2023-03-25T00:43:02;13.70;99.90
48206;DHT22;33995;48.202;16.260;2023-03-25T00:45:30;13.70;99.90
48206;DHT22;33995;48.202;16.260;2023-03-25T00:47:57;13.60;99.90
48206;DHT22;33995;48.202;16.260;2023-03-25T00:50:24;13.60;99.90
48206;DHT22;33995;48.202;16.260;2023-03-25T00:52:52;13.60;99.90
48206;DHT22;33995;48.202;16.260;2023-03-25T00:55:21;13.60;99.90
48206;DHT22;33995;48.202;16.260;2023-03-25T00:57:48;13.60;99.90
48206;DHT22;33995;48.202;16.260;2023-03-25T01:00:17;13.60;99.90
48206;DHT22;33995;48.202;16.260;2023-03-25T01:02:48;13.60;99.90
48206;DHT22;33995;48.202;16.260;2023-03-25T01:05:20;13.60;99.90
48206;DHT22;33995;48.202;16.260;2023-03-25T01:07:47;13.50;99.90
48206;DHT22;33995;48.202;16.260;2023-03-25T01:10:15;13.50;99.90
48206;DHT22;33995;48.202;16.260;2023-03-25T01:12:42;13.50;99.90
48206;DHT22;33995;48.202;16.260;2023-03-25T01:15:10;13.50;99.90
48206;DHT22;33995;48.202;16.260;2023-03-25T01:17:39;13.50;99.90
48206;DHT22;33995;48.202;16.260;2023-03-25T01:20:07;13.50;99.90
48206;DHT22;33995;48.202;16.260;2023-03-25T01:22:37;13.50;99.90
48206;DHT22;33995;48.202;16.260;2023-03-25T01:25:04;13.40;99.90
48206;DHT22;33995;48.202;16.260;2023-03-25T01:27:32;13.50;99.90
48206;DHT22;33995;48.202;16.260;2023-03-25T01:29:59;13.50;99.90
48206;DHT22;33995;48.202;16.260;2023-03-25T01:32:28;13.40;99.90
48206;DHT22;33995;48.202;16.260;2023-03-25T01:34:55;13.40;99.90
48206;DHT22;33995;48.202;16.260;2023-03-25T01:37:22;13.40;99.90
48206;DHT22;33995;48.202;16.260;2023-03-25T01:39:52;13.40;99.90
48206;DHT22;33995;48.202;16.260;2023-03-25T01:42:19;13.40;99.90
48206;DHT22;33995;48.202;16.260;2023-03-25T01:47:14;13.40;99.90
48206;DHT22;33995;48.202;16.260;2023-03-25T01:49:43;13.40;99.90
48206;DHT22;33995;48.202;16.260;2023-03-25T01:52:23;13.40;99.90
48206;DHT22;33995;48.202;16.260;2023-03-25T01:54:53;13.40;99.90
48206;DHT22;33995;48.202;16.260;2023-03-25T01:57:22;13.30;99.90
48206;DHT22;33995;48.202;16.260;2023-03-25T01:59:53;13.30;99.90
48206;DHT22;33995;48.202;16.260;2023-03-25T02:02:22;13.30;99.90
48206;DHT22;33995;48.202;16.260;2023-03-25T02:05:26;13.30;99.90
48206;DHT22;33995;48.202;16.260;2023-03-25T02:07:52;13.30;99.90
48206;DHT22;33995;48.202;16.260;2023-03-25T02:10:23;13.30;99.90
48206;DHT22;33995;48.202;16.260;2023-03-25T02:12:50;13.30;99.90
48206;DHT22;33995;48.202;16.260;2023-03-25T02:15:18;13.30;99.90
48206;DHT22;33995;48.202;16.260;2023-03-25T02:31:45;13.30;99.90
48206;DHT22;33995;48.202;16.260;2023-03-25T02:40:07;13.20;99.90
48206;DHT22;33995;48.202;16.260;2023-03-25T02:42:49;13.20;99.90
48206;DHT22;33995;48.202;16.260;2023-03-25T02:45:31;13.20;99.90
48206;DHT22;33995;48.202;16.260;2023-03-25T02:48:04;13.20;99.90
48206;DHT22;33995;48.202;16.260;2023-03-25T02:50:37;13.20;99.90
48206;DHT22;33995;48.202;16.260;2023-03-25T02:53:16;13.30;99.90
48206;DHT22;33995;48.202;16.260;2023-03-25T02:55:48;13.30;99.90
48206;DHT22;33995;48.202;16.260;2023-03-25T02:58:20;13.20;99.90
48206;DHT22;33995;48.202;16.260;2023-03-25T03:00:49;13.20;99.90
48206;DHT22;33995;48.202;16.260;2023-03-25T03:03:17;13.20;99.90
48206;DHT22;33995;48.202;16.260;2023-03-25T03:05:49;13.20;99.90
48206;DHT22;33995;48.202;16.260;2023-03-25T03:08:50;13.10;99.90
48206;DHT22;33995;48.202;16.260;2023-03-25T03:11:33;13.10;99.90
48206;DHT22;33995;48.202;16.260;2023-03-25T03:17:19;13.10;99.90
48206;DHT22;33995;48.202;16.260;2023-03-25T03:19:59;13.10;99.90
48206;DHT22;33995;48.202;16.260;2023-03-25T03:27:46;13.10;99.90
48206;DHT22;33995;48.202;16.260;2023-03-25T03:30:25;13.00;99.90
48206;DHT22;33995;48.202;16.260;2023-03-25T03:33:04;13.00;99.90
48206;DHT22;33995;48.202;16.260;2023-03-25T03:35:41;13.10;99.90
48206;DHT22;33995;48.202;16.260;2023-03-25T03:38:13;13.10;99.90
48206;DHT22;33995;48.202;16.260;2023-03-25T03:40:45;13.00;99.90
48206;DHT22;33995;48.202;16.260;2023-03-25T03:46:30;13.00;99.90
48206;DHT22;33995;48.202;16.260;2023-03-25T03:49:01;12.90;99.90
48206;DHT22;33995;48.202;16.260;2023-03-25T03:51:34;12.90;99.90
48206;DHT22;33995;48.202;16.260;2023-03-25T03:54:09;12.90;99.90
48206;DHT22;33995;48.202;16.260;2023-03-25T03:57:00;12.90;99.90
48206;DHT22;33995;48.202;16.260;2023-03-25T04:01:59;12.80;99.90
48206;DHT22;33995;48.202;16.260;2023-03-25T04:04:29;12.80;99.90
48206;DHT22;33995;48.202;16.260;2023-03-25T04:07:27;12.90;99.90
48206;DHT22;33995;48.202;16.260;2023-03-25T04:10:13;12.80;99.90
48206;DHT22;33995;48.202;16.260;2023-03-25T04:12:50;12.80;99.90
48206;DHT22;33995;48.202;16.260;2023-03-25T04:15:18;12.90;99.90
48206;DHT22;33995;48.202;16.260;2023-03-25T04:17:46;12.90;99.90
48206;DHT22;33995;48.202;16.260;2023-03-25T04:20:21;12.80;99.90
48206;DHT22;33995;48.202;16.260;2023-03-25T04:22:51;12.80;99.90
48206;DHT22;33995;48.202;16.260;2023-03-25T04:25:19;12.70;99.90
48206;DHT22;33995;48.202;16.260;2023-03-25T04:27:52;12.80;99.90
48206;DHT22;33995;48.202;16.260;2023-03-25T04:30:19;12.70;99.90
48206;DHT22;33995;48.202;16.260;2023-03-25T04:32:49;12.70;99.90
48206;DHT22;33995;48.202;16.260;2023-03-25T04:35:18;12.70;99.90
48206;DHT22;33995;48.202;16.260;2023-03-25T04:37:46;12.70;99.90
48206;DHT22;33995;48.202;16.260;2023-03-25T04:40:15;12.60;99.90
48206;DHT22;33995;48.202;16.260;2023-03-25T04:42:46;12.60;99.90
48206;DHT22;33995;48.202;16.260;2023-03-25T04:45:15;12.50;99.90
48206;DHT22;33995;48.202;16.260;2023-03-25T04:47:46;12.50;99.90
48206;DHT22;33995;48.202;16.260;2023-03-25T04:50:18;12.50;99.90
48206;DHT22;33995;48.202;16.260;2023-03-25T04:52:46;12.50;99.90
48206;DHT22;33995;48.202;16.260;2023-03-25T04:55:13;12.50;99.90
48206;DHT22;33995;48.202;16.260;2023-03-25T04:57:44;12.50;99.90
48206;DHT22;33995;48.202;16.260;2023-03-25T05:00:13;12.50;99.90
48206;DHT22;33995;48.202;16.260;2023-03-25T05:02:45;12.50;99.90
48206;DHT22;33995;48.202;16.260;2023-03-25T05:05:14;12.40;99.90
48206;DHT22;33995;48.202;16.260;2023-03-25T05:07:45;12.50;99.90
48206;DHT22;33995;48.202;16.260;2023-03-25T05:10:13;12.50;99.90
48206;DHT22;33995;48.202;16.260;2023-03-25T05:12:40;12.50;99.90
48206;DHT22;33995;48.202;16.260;2023-03-25T05:15:08;12.50;99.90
48206;DHT22;33995;48.202;16.260;2023-03-25T05:17:36;12.50;99.90
48206;DHT22;33995;48.202;16.260;2023-03-25T05:20:07;12.50;99.90
48206;DHT22;33995;48.202;16.260;2023-03-25T05:22:37;12.40;99.90
48206;DHT22;33995;48.202;16.260;2023-03-25T05:25:06;12.50;99.90
48206;DHT22;33995;48.202;16.260;2023-03-25T05:27:35;12.50;99.90
48206;DHT22;33995;48.202;16.260;2023-03-25T05:30:03;12.50;99.90
48206;DHT22;33995;48.202;16.260;2023-03-25T05:32:31;12.50;99.90
48206;DHT22;33995;48.202;16.260;2023-03-25T05:35:02;12.50;99.90
48206;DHT22;33995;48.202;16.260;2023-03-25T05:37:31;12.50;99.90
48206;DHT22;33995;48.202;16.260;2023-03-25T05:39:59;12.50;99.90
48206;DHT22;33995;48.202;16.260;2023-03-25T05:42:26;12.60;99.90
48206;DHT22;33995;48.202;16.260;2023-03-25T05:44:53;12.60;99.90
48206;DHT22;33995;48.202;16.260;2023-03-25T05:47:24;12.60;99.90
48206;DHT22;33995;48.202;16.260;2023-03-25T05:49:52;12.60;99.90
48206;DHT22;33995;48.202;16.260;2023-03-25T05:52:20;12.60;99.90
48206;DHT22;33995;48.202;16.260;2023-03-25T05:54:50;12.60;99.90
48206;DHT22;33995;48.202;16.260;2023-03-25T05:57:17;12.70;99.90
48206;DHT22;33995;48.202;16.260;2023-03-25T05:59:45;12.70;99.90
48206;DHT22;33995;48.202;16.260;2023-03-25T06:02:16;12.70;99.90
48206;DHT22;33995;48.202;16.260;2023-03-25T06:04:44;12.70;99.90
48206;DHT22;33995;48.202;16.260;2023-03-25T06:07:16;12.70;99.90
48206;DHT22;33995;48.202;16.260;2023-03-25T06:09:46;12.70;99.90
48206;DHT22;33995;48.202;16.260;2023-03-25T06:12:19;12.60;99.90
48206;DHT22;33995;48.202;16.260;2023-03-25T06:14:48;12.70;99.90
48206;DHT22;33995;48.202;16.260;2023-03-25T06:17:21;12.70;99.90
48206;DHT22;33995;48.202;16.260;2023-03-25T06:19:49;12.70;99.90
48206;DHT22;33995;48.202;16.260;2023-03-25T06:22:17;12.70;99.90
48206;DHT22;33995;48.202;16.260;2023-03-25T06:24:47;12.60;99.90
48206;DHT22;33995;48.202;16.260;2023-03-25T06:27:16;12.70;99.90
48206;DHT22;33995;48.202;16.260;2023-03-25T06:29:43;12.60;99.90
48206;DHT22;33995;48.202;16.260;2023-03-25T06:32:13;12.60;99.90
48206;DHT22;33995;48.202;16.260;2023-03-25T06:34:41;12.70;99.90
48206;DHT22;33995;48.202;16.260;2023-03-25T06:37:08;12.70;99.90
48206;DHT22;33995;48.202;16.260;2023-03-25T06:39:36;12.80;99.90
48206;DHT22;33995;48.202;16.260;2023-03-25T06:42:13;12.80;99.90
48206;DHT22;33995;48.202;16.260;2023-03-25T06:44:50;12.80;99.90
48206;DHT22;33995;48.202;16.260;2023-03-25T06:47:40;12.80;99.90
48206;DHT22;33995;48.202;16.260;2023-03-25T06:50:08;12.80;99.90
48206;DHT22;33995;48.202;16.260;2023-03-25T06:52:35;12.80;99.90
48206;DHT22;33995;48.202;16.260;2023-03-25T06:55:03;12.80;99.90
48206;DHT22;33995;48.202;16.260;2023-03-25T06:57:30;12.80;99.90
48206;DHT22;33995;48.202;16.260;2023-03-25T06:59:58;12.70;99.90
48206;DHT22;33995;48.202;16.260;2023-03-25T07:02:26;12.80;99.90
48206;DHT22;33995;48.202;16.260;2023-03-25T07:04:53;12.80;99.90
48206;DHT22;33995;48.202;16.260;2023-03-25T07:07:20;12.80;99.90
48206;DHT22;33995;48.202;16.260;2023-03-25T07:09:51;12.90;99.90
48206;DHT22;33995;48.202;16.260;2023-03-25T07:12:21;12.90;99.90
48206;DHT22;33995;48.202;16.260;2023-03-25T07:14:56;13.00;99.90
48206;DHT22;33995;48.202;16.260;2023-03-25T07:17:27;13.00;99.90
48206;DHT22;33995;48.202;16.260;2023-03-25T07:19:54;12.90;99.90
48206;DHT22;33995;48.202;16.260;2023-03-25T07:22:22;13.00;99.90
48206;DHT22;33995;48.202;16.260;2023-03-25T07:24:48;12.90;99.90
48206;DHT22;33995;48.202;16.260;2023-03-25T07:27:18;13.00;99.90
48206;DHT22;33995;48.202;16.260;2023-03-25T07:29:55;13.10;99.90
48206;DHT22;33995;48.202;16.260;2023-03-25T07:32:23;13.10;99.90
48206;DHT22;33995;48.202;16.260;2023-03-25T07:34:50;13.10;99.90
48206;DHT22;33995;48.202;16.260;2023-03-25T07:37:17;13.10;99.90
48206;DHT22;33995;48.202;16.260;2023-03-25T07:39:44;13.10;99.90
48206;DHT22;33995;48.202;16.260;2023-03-25T07:42:11;13.20;99.90
48206;DHT22;33995;48.202;16.260;2023-03-25T07:44:57;13.10;99.90
48206;DHT22;33995;48.202;16.260;2023-03-25T07:47:24;13.10;99.90
48206;DHT22;33995;48.202;16.260;2023-03-25T07:49:51;13.20;99.90
48206;DHT22;33995;48.202;16.260;2023-03-25T07:52:18;13.20;99.90
48206;DHT22;33995;48.202;16.260;2023-03-25T07:54:46;13.30;99.90
48206;DHT22;33995;48.202;16.260;2023-03-25T07:57:13;13.40;99.90
48206;DHT22;33995;48.202;16.260;2023-03-25T07:59:40;13.40;99.90
48206;DHT22;33995;48.202;16.260;2023-03-25T08:02:11;13.40;99.90
48206;DHT22;33995;48.202;16.260;2023-03-25T08:04:39;13.30;99.90
48206;DHT22;33995;48.202;16.260;2023-03-25T08:07:06;13.30;99.90
48206;DHT22;33995;48.202;16.260;2023-03-25T08:09:34;13.40;99.90
48206;DHT22;33995;48.202;16.260;2023-03-25T08:12:01;13.40;99.90
48206;DHT22;33995;48.202;16.260;2023-03-25T08:14:28;13.60;99.90
48206;DHT22;33995;48.202;16.260;2023-03-25T08:16:55;13.60;99.90
48206;DHT22;33995;48.202;16.260;2023-03-25T08:19:22;13.50;99.90
48206;DHT22;33995;48.202;16.260;2023-03-25T08:21:50;13.50;99.90
48206;DHT22;33995;48.202;16.260;2023-03-25T08:24:16;13.50;99.90
48206;DHT22;33995;48.202;16.260;2023-03-25T08:26:43;13.50;99.90
48206;DHT22;33995;48.202;16.260;2023-03-25T08:29:11;13.50;99.90
48206;DHT22;33995;48.202;16.260;2023-03-25T08:31:38;13.50;99.90
48206;DHT22;33995;48.202;16.260;2023-03-25T08:34:08;13.50;99.90
48206;DHT22;33995;48.202;16.260;2023-03-25T08:36:35;13.50;99.90
48206;DHT22;33995;48.202;16.260;2023-03-25T08:39:08;13.50;99.90
48206;DHT22;33995;48.202;16.260;2023-03-25T08:41:38;13.50;99.90
48206;DHT22;33995;48.202;16.260;2023-03-25T08:44:06;13.60;99.90
48206;DHT22;33995;48.202;16.260;2023-03-25T08:46:33;13.60;99.90
48206;DHT22;33995;48.202;16.260;2023-03-25T08:49:00;13.70;99.90
48206;DHT22;33995;48.202;16.260;2023-03-25T08:51:28;13.80;99.90
48206;DHT22;33995;48.202;16.260;2023-03-25T08:53:56;13.70;99.90
48206;DHT22;33995;48.202;16.260;2023-03-25T08:56:23;13.70;99.90
48206;DHT22;33995;48.202;16.260;2023-03-25T08:58:50;13.70;99.90
48206;DHT22;33995;48.202;16.260;2023-03-25T09:01:17;13.80;99.90
48206;DHT22;33995;48.202;16.260;2023-03-25T09:03:44;13.80;99.90
48206;DHT22;33995;48.202;16.260;2023-03-25T09:06:13;13.80;99.90
48206;DHT22;33995;48.202;16.260;2023-03-25T09:08:41;13.70;99.90
48206;DHT22;33995;48.202;16.260;2023-03-25T09:11:08;13.80;99.90
48206;DHT22;33995;48.202;16.260;2023-03-25T09:13:35;13.80;99.90
48206;DHT22;33995;48.202;16.260;2023-03-25T09:16:03;13.80;99.90
48206;DHT22;33995;48.202;16.260;2023-03-25T09:18:33;13.90;99.90
48206;DHT22;33995;48.202;16.260;2023-03-25T09:21:03;13.90;99.90
48206;DHT22;33995;48.202;16.260;2023-03-25T09:23:31;13.90;99.90
48206;DHT22;33995;48.202;16.260;2023-03-25T09:26:01;13.90;99.90
48206;DHT22;33995;48.202;16.260;2023-03-25T09:28:29;13.90;99.90
48206;DHT22;33995;48.202;16.260;2023-03-25T09:30:57;14.00;99.90
48206;DHT22;33995;48.202;16.260;2023-03-25T09:33:24;13.90;99.90
48206;DHT22;33995;48.202;16.260;2023-03-25T09:35:53;13.80;99.90
48206;DHT22;33995;48.202;16.260;2023-03-25T09:38:20;14.00;99.90
48206;DHT22;33995;48.202;16.260;2023-03-25T09:40:50;14.00;99.90
48206;DHT22;33995;48.202;16.260;2023-03-25T09:46:03;14.10;99.90
48206;DHT22;33995;48.202;16.260;2023-03-25T09:48:38;14.10;99.90
48206;DHT22;33995;48.202;16.260;2023-03-25T10:15:29;14.10;99.90
48206;DHT22;33995;48.202;16.260;2023-03-25T10:19:03;14.20;99.80
48206;DHT22;33995;48.202;16.260;2023-03-25T10:32:58;14.50;99.20
48206;DHT22;33995;48.202;16.260;2023-03-25T10:35:36;14.40;99.30
48206;DHT22;33995;48.202;16.260;2023-03-25T10:38:24;14.60;99.00
48206;DHT22;33995;48.202;16.260;2023-03-25T10:41:33;14.60;98.80
48206;DHT22;33995;48.202;16.260;2023-03-25T10:44:11;14.70;98.80
48206;DHT22;33995;48.202;16.260;2023-03-25T10:49:48;14.70;98.70
48206;DHT22;33995;48.202;16.260;2023-03-25T10:52:18;14.70;98.30
48206;DHT22;33995;48.202;16.260;2023-03-25T10:54:49;14.50;98.20
48206;DHT22;33995;48.202;16.260;2023-03-25T10:57:28;14.60;98.20
48206;DHT22;33995;48.202;16.260;2023-03-25T11:00:17;14.50;97.50
48206;DHT22;33995;48.202;16.260;2023-03-25T11:02:46;14.40;97.50
48206;DHT22;33995;48.202;16.260;2023-03-25T11:09:30;14.40;96.60
48206;DHT22;33995;48.202;16.260;2023-03-25T11:13:16;14.40;96.40
48206;DHT22;33995;48.202;16.260;2023-03-25T11:17:06;14.50;96.20
48206;DHT22;33995;48.202;16.260;2023-03-25T11:19:41;14.60;96.10
48206;DHT22;33995;48.202;16.260;2023-03-25T11:22:34;14.70;96.10
48206;DHT22;33995;48.202;16.260;2023-03-25T11:25:17;15.00;96.50
48206;DHT22;33995;48.202;16.260;2023-03-25T11:28:25;15.00;95.60
48206;DHT22;33995;48.202;16.260;2023-03-25T11:31:15;15.20;95.40
48206;DHT22;33995;48.202;16.260;2023-03-25T11:34:19;15.30;94.90
48206;DHT22;33995;48.202;16.260;2023-03-25T11:36:54;15.50;94.80
48206;DHT22;33995;48.202;16.260;2023-03-25T11:39:51;15.70;94.80
48206;DHT22;33995;48.202;16.260;2023-03-25T11:42:43;15.80;94.50
48206;DHT22;33995;48.202;16.260;2023-03-25T11:45:27;16.00;94.70
48206;DHT22;33995;48.202;16.260;2023-03-25T11:48:14;16.20;94.00
48206;DHT22;33995;48.202;16.260;2023-03-25T11:51:28;16.20;93.70
48206;DHT22;33995;48.202;16.260;2023-03-25T11:54:55;16.30;92.60
48206;DHT22;33995;48.202;16.260;2023-03-25T11:58:20;16.60;93.00
48206;DHT22;33995;48.202;16.260;2023-03-25T12:00:59;16.40;92.90
48206;DHT22;33995;48.202;16.260;2023-03-25T12:03:30;16.30;93.00
48206;DHT22;33995;48.202;16.260;2023-03-25T12:09:02;16.00;92.90
48206;DHT22;33995;48.202;16.260;2023-03-25T12:17:54;15.50;93.70
48206;DHT22;33995;48.202;16.260;2023-03-25T12:26:10;15.80;93.80
48206;DHT22;33995;48.202;16.260;2023-03-25T12:29:45;16.00;93.40
48206;DHT22;33995;48.202;16.260;2023-03-25T12:32:42;15.70;93.10
48206;DHT22;33995;48.202;16.260;2023-03-25T12:40:31;15.70;92.40
48206;DHT22;33995;48.202;16.260;2023-03-25T12:43:09;15.80;92.30
48206;DHT22;33995;48.202;16.260;2023-03-25T13:02:31;16.60;93.00
48206;DHT22;33995;48.202;16.260;2023-03-25T13:05:24;16.90;92.10
48206;DHT22;33995;48.202;16.260;2023-03-25T13:07:56;17.20;91.70
48206;DHT22;33995;48.202;16.260;2023-03-25T13:10:32;17.40;91.50
48206;DHT22;33995;48.202;16.260;2023-03-25T13:13:04;17.90;92.70
48206;DHT22;33995;48.202;16.260;2023-03-25T13:15:40;18.30;91.70
48206;DHT22;33995;48.202;16.260;2023-03-25T13:18:32;18.40;91.00
48206;DHT22;33995;48.202;16.260;2023-03-25T13:21:10;18.50;90.80
48206;DHT22;33995;48.202;16.260;2023-03-25T13:23:42;18.50;90.40
48206;DHT22;33995;48.202;16.260;2023-03-25T13:26:16;18.40;88.10
48206;DHT22;33995;48.202;16.260;2023-03-25T13:28:52;18.30;84.70
48206;DHT22;33995;48.202;16.260;2023-03-25T13:31:26;18.00;83.20
48206;DHT22;33995;48.202;16.260;2023-03-25T13:44:51;18.00;81.80
48206;DHT22;33995;48.202;16.260;2023-03-25T13:47:36;20.60;75.70
48206;DHT22;33995;48.202;16.260;2023-03-25T13:50:24;22.90;71.70
48206;DHT22;33995;48.202;16.260;2023-03-25T13:53:19;23.70;67.50
48206;DHT22;33995;48.202;16.260;2023-03-25T14:14:53;18.20;76.30
48206;DHT22;33995;48.202;16.260;2023-03-25T14:17:25;18.00;76.10
48206;DHT22;33995;48.202;16.260;2023-03-25T14:19:53;17.60;77.10
48206;DHT22;33995;48.202;16.260;2023-03-25T14:22:25;17.50;78.00
48206;DHT22;33995;48.202;16.260;2023-03-25T14:24:54;17.70;79.80
48206;DHT22;33995;48.202;16.260;2023-03-25T14:27:26;18.80;76.30
48206;DHT22;33995;48.202;16.260;2023-03-25T14:43:26;17.20;76.90
48206;DHT22;33995;48.202;16.260;2023-03-25T14:51:41;17.20;78.30
48206;DHT22;33995;48.202;16.260;2023-03-25T14:54:31;17.00;78.70
48206;DHT22;33995;48.202;16.260;2023-03-25T14:57:05;16.70;79.40
48206;DHT22;33995;48.202;16.260;2023-03-25T14:59:47;16.50;81.50
48206;DHT22;33995;48.202;16.260;2023-03-25T15:02:27;16.40;80.40
48206;DHT22;33995;48.202;16.260;2023-03-25T15:05:00;16.40;83.30
48206;DHT22;33995;48.202;16.260;2023-03-25T15:12:49;16.40;81.50
48206;DHT22;33995;48.202;16.260;2023-03-25T15:23:41;16.40;82.00
48206;DHT22;33995;48.202;16.260;2023-03-25T15:26:30;16.50;82.30
48206;DHT22;33995;48.202;16.260;2023-03-25T15:29:31;16.60;82.60
48206;DHT22;33995;48.202;16.260;2023-03-25T15:38:21;16.40;82.50
48206;DHT22;33995;48.202;16.260;2023-03-25T15:43:41;16.40;83.20
48206;DHT22;33995;48.202;16.260;2023-03-25T15:55:18;16.00;84.60
48206;DHT22;33995;48.202;16.260;2023-03-25T15:57:50;16.10;84.50
48206;DHT22;33995;48.202;16.260;2023-03-25T16:00:37;16.10;84.70
48206;DHT22;33995;48.202;16.260;2023-03-25T16:03:13;15.90;83.70
48206;DHT22;33995;48.202;16.260;2023-03-25T16:05:50;15.70;83.60
48206;DHT22;33995;48.202;16.260;2023-03-25T16:08:42;15.50;83.50
48206;DHT22;33995;48.202;16.260;2023-03-25T16:14:04;15.40;84.30
48206;DHT22;33995;48.202;16.260;2023-03-25T16:16:33;15.20;84.80
48206;DHT22;33995;48.202;16.260;2023-03-25T16:19:06;15.10;85.20
48206;DHT22;33995;48.202;16.260;2023-03-25T16:21:34;15.00;85.60
48206;DHT22;33995;48.202;16.260;2023-03-25T16:24:05;14.90;86.50
48206;DHT22;33995;48.202;16.260;2023-03-25T16:26:36;14.90;86.60
48206;DHT22;33995;48.202;16.260;2023-03-25T16:29:19;14.70;87.20
48206;DHT22;33995;48.202;16.260;2023-03-25T16:31:57;14.80;87.80
48206;DHT22;33995;48.202;16.260;2023-03-25T16:34:27;14.80;88.40
48206;DHT22;33995;48.202;16.260;2023-03-25T16:36:55;14.50;89.10
48206;DHT22;33995;48.202;16.260;2023-03-25T16:39:23;14.50;90.50
48206;DHT22;33995;48.202;16.260;2023-03-25T16:41:58;14.20;92.40
48206;DHT22;33995;48.202;16.260;2023-03-25T16:44:26;14.20;93.30
48206;DHT22;33995;48.202;16.260;2023-03-25T16:46:58;13.80;95.50
48206;DHT22;33995;48.202;16.260;2023-03-25T16:49:34;13.40;99.10
48206;DHT22;33995;48.202;16.260;2023-03-25T16:52:10;13.10;99.90
48206;DHT22;33995;48.202;16.260;2023-03-25T16:54:45;13.10;99.90
48206;DHT22;33995;48.202;16.260;2023-03-25T16:57:20;13.10;99.90
48206;DHT22;33995;48.202;16.260;2023-03-25T16:59:50;13.00;99.90
48206;DHT22;33995;48.202;16.260;2023-03-25T17:04:53;12.70;99.90
48206;DHT22;33995;48.202;16.260;2023-03-25T17:07:27;12.60;99.90
48206;DHT22;33995;48.202;16.260;2023-03-25T17:09:57;12.40;99.90
48206;DHT22;33995;48.202;16.260;2023-03-25T17:12:26;12.10;99.90
48206;DHT22;33995;48.202;16.260;2023-03-25T17:15:02;12.00;99.90
48206;DHT22;33995;48.202;16.260;2023-03-25T17:17:40;12.00;99.90
48206;DHT22;33995;48.202;16.260;2023-03-25T17:20:36;11.90;99.90
48206;DHT22;33995;48.202;16.260;2023-03-25T17:23:18;11.70;99.90
48206;DHT22;33995;48.202;16.260;2023-03-25T17:25:57;11.90;99.90
48206;DHT22;33995;48.202;16.260;2023-03-25T17:31:33;11.90;99.90
48206;DHT22;33995;48.202;16.260;2023-03-25T17:34:12;11.90;99.90
48206;DHT22;33995;48.202;16.260;2023-03-25T17:36:42;11.90;99.90
48206;DHT22;33995;48.202;16.260;2023-03-25T17:39:18;12.00;99.90
48206;DHT22;33995;48.202;16.260;2023-03-25T17:41:54;11.90;99.90
48206;DHT22;33995;48.202;16.260;2023-03-25T17:44:25;11.80;99.90
48206;DHT22;33995;48.202;16.260;2023-03-25T17:46:59;11.70;99.90
48206;DHT22;33995;48.202;16.260;2023-03-25T17:49:27;11.70;99.90
48206;DHT22;33995;48.202;16.260;2023-03-25T17:51:55;11.60;99.90
48206;DHT22;33995;48.202;16.260;2023-03-25T17:54:24;11.60;99.90
48206;DHT22;33995;48.202;16.260;2023-03-25T17:56:52;11.60;99.90
48206;DHT22;33995;48.202;16.260;2023-03-25T17:59:23;11.40;99.90
48206;DHT22;33995;48.202;16.260;2023-03-25T18:01:52;11.40;99.90
48206;DHT22;33995;48.202;16.260;2023-03-25T18:04:21;11.30;99.90
48206;DHT22;33995;48.202;16.260;2023-03-25T18:06:48;11.10;99.90
48206;DHT22;33995;48.202;16.260;2023-03-25T18:09:19;11.10;99.90
48206;DHT22;33995;48.202;16.260;2023-03-25T18:11:51;11.30;99.90
48206;DHT22;33995;48.202;16.260;2023-03-25T18:14:21;11.30;99.90
48206;DHT22;33995;48.202;16.260;2023-03-25T18:16:49;11.10;99.90
48206;DHT22;33995;48.202;16.260;2023-03-25T18:19:21;11.00;99.90
48206;DHT22;33995;48.202;16.260;2023-03-25T18:21:51;11.10;99.90
48206;DHT22;33995;48.202;16.260;2023-03-25T18:24:19;11.10;99.90
48206;DHT22;33995;48.202;16.260;2023-03-25T18:26:49;11.20;99.90
48206;DHT22;33995;48.202;16.260;2023-03-25T18:29:20;11.20;99.90
48206;DHT22;33995;48.202;16.260;2023-03-25T18:31:48;11.30;99.90
48206;DHT22;33995;48.202;16.260;2023-03-25T18:34:16;11.20;99.90
48206;DHT22;33995;48.202;16.260;2023-03-25T18:36:45;11.20;99.90
48206;DHT22;33995;48.202;16.260;2023-03-25T18:39:21;11.20;99.90
48206;DHT22;33995;48.202;16.260;2023-03-25T18:41:50;11.20;99.90
48206;DHT22;33995;48.202;16.260;2023-03-25T18:44:18;11.00;99.90
48206;DHT22;33995;48.202;16.260;2023-03-25T18:46:49;10.90;99.90
48206;DHT22;33995;48.202;16.260;2023-03-25T18:49:18;11.00;99.90
48206;DHT22;33995;48.202;16.260;2023-03-25T18:51:46;10.80;99.90
48206;DHT22;33995;48.202;16.260;2023-03-25T18:54:18;10.70;99.90
48206;DHT22;33995;48.202;16.260;2023-03-25T18:56:50;10.80;99.90
48206;DHT22;33995;48.202;16.260;2023-03-25T18:59:18;11.00;99.90
48206;DHT22;33995;48.202;16.260;2023-03-25T19:01:48;10.70;99.90
48206;DHT22;33995;48.202;16.260;2023-03-25T19:04:17;10.60;99.90
48206;DHT22;33995;48.202;16.260;2023-03-25T19:06:45;10.60;99.90
48206;DHT22;33995;48.202;16.260;2023-03-25T19:09:17;10.50;99.90
48206;DHT22;33995;48.202;16.260;2023-03-25T19:11:46;10.50;99.90
48206;DHT22;33995;48.202;16.260;2023-03-25T19:14:14;10.50;99.90
48206;DHT22;33995;48.202;16.260;2023-03-25T19:16:44;10.50;99.90
48206;DHT22;33995;48.202;16.260;2023-03-25T19:19:27;10.60;99.90
48206;DHT22;33995;48.202;16.260;2023-03-25T19:21:57;10.60;99.90